sensor_id;sensor_type;location;lat;lon;timestamp;pressure;altitude;pressure_sealevel;temperature;humidity
38038;BME280;23843;51.320;12.340;2023-11-21T00:01:07;99578.50;;;8.92;70.61
38038;BME280;23843;51.320;12.340;2023-11-21T00:03:32;99582.63;;;8.90;70.83
38038;BME280;23843;51.320;12.340;2023-11-21T00:05:58;99588.88;;;8.85;71.10
38038;BME280;23843;51.320;12.340;2023-11-21T00:08:23;99588.78;;;8.80;71.02
38038;BME280;23843;51.320;12.340;2023-11-21T00:10:49;99591.16;;;8.77;71.10
38038;BME280;23843;51.320;12.340;2023-11-21T00:13:14;99589.75;;;8.74;70.68
38038;BME280;23843;51.320;12.340;2023-11-21T00:15:40;99595.75;;;8.71;70.85
38038;BME280;23843;51.320;12.340;2023-11-21T00:18:07;99593.50;;;8.68;70.79
38038;BME280;23843;51.320;12.340;2023-11-21T00:20:32;99591.19;;;8.65;70.58
38038;BME280;23843;51.320;12.340;2023-11-21T00:22:58;99590.00;;;8.61;70.69
38038;BME280;23843;51.320;12.340;2023-11-21T00:25:23;99597.94;;;8.57;71.00
38038;BME280;23843;51.320;12.340;2023-11-21T00:27:48;99603.69;;;8.56;70.75
38038;BME280;23843;51.320;12.340;2023-11-21T00:30:14;99607.81;;;8.53;71.55
38038;BME280;23843;51.320;12.340;2023-11-21T00:32:40;99610.22;;;8.50;71.57
38038;BME280;23843;51.320;12.340;2023-11-21T00:35:07;99605.16;;;8.47;71.33
38038;BME280;23843;51.320;12.340;2023-11-21T00:37:33;99607.31;;;8.45;71.64
38038;BME280;23843;51.320;12.340;2023-11-21T00:39:58;99611.41;;;8.42;71.59
38038;BME280;23843;51.320;12.340;2023-11-21T00:42:23;99607.22;;;8.40;71.14
38038;BME280;23843;51.320;12.340;2023-11-21T00:44:49;99614.91;;;8.38;71.67
38038;BME280;23843;51.320;12.340;2023-11-21T00:47:14;99615.97;;;8.37;71.00
38038;BME280;23843;51.320;12.340;2023-11-21T00:49:40;99611.28;;;8.37;70.71
38038;BME280;23843;51.320;12.340;2023-11-21T00:52:07;99620.44;;;8.38;70.89
38038;BME280;23843;51.320;12.340;2023-11-21T00:54:32;99620.44;;;8.38;71.52
38038;BME280;23843;51.320;12.340;2023-11-21T00:56:58;99613.81;;;8.39;71.33
38038;BME280;23843;51.320;12.340;2023-11-21T00:59:23;99619.38;;;8.39;70.81
38038;BME280;23843;51.320;12.340;2023-11-21T01:01:48;99621.06;;;8.40;70.97
38038;BME280;23843;51.320;12.340;2023-11-21T01:04:14;99627.66;;;8.39;71.74
38038;BME280;23843;51.320;12.340;2023-11-21T01:06:39;99632.94;;;8.40;71.49
38038;BME280;23843;51.320;12.340;2023-11-21T01:09:06;99625.47;;;8.41;71.25
38038;BME280;23843;51.320;12.340;2023-11-21T01:11:32;99632.94;;;8.40;71.85
38038;BME280;23843;51.320;12.340;2023-11-21T01:13:57;99625.47;;;8.41;70.94
38038;BME280;23843;51.320;12.340;2023-11-21T01:16:31;99636.81;;;8.39;71.16
38038;BME280;23843;51.320;12.340;2023-11-21T01:18:57;99632.13;;;8.40;71.72
38038;BME280;23843;51.320;12.340;2023-11-21T01:21:22;99638.75;;;8.39;71.33
38038;BME280;23843;51.320;12.340;2023-11-21T01:23:48;99642.09;;;8.41;71.05
38038;BME280;23843;51.320;12.340;2023-11-21T01:26:15;99638.00;;;8.43;70.95
38038;BME280;23843;51.320;12.340;2023-11-21T01:28:40;99645.59;;;8.48;70.94
38038;BME280;23843;51.320;12.340;2023-11-21T01:31:05;99640.19;;;8.53;71.22
38038;BME280;23843;51.320;12.340;2023-11-21T01:33:31;99639.47;;;8.57;71.80
38038;BME280;23843;51.320;12.340;2023-11-21T01:35:56;99649.56;;;8.64;71.59
38038;BME280;23843;51.320;12.340;2023-11-21T01:38:22;99640.56;;;8.68;70.99
38038;BME280;23843;51.320;12.340;2023-11-21T01:40:47;99646.22;;;8.73;71.58
38038;BME280;23843;51.320;12.340;2023-11-21T01:43:14;99638.25;;;8.77;71.23
38038;BME280;23843;51.320;12.340;2023-11-21T01:45:40;99648.38;;;8.83;70.88
38038;BME280;23843;51.320;12.340;2023-11-21T01:48:05;99639.09;;;8.89;70.85
38038;BME280;23843;51.320;12.340;2023-11-21T01:50:31;99644.97;;;8.92;70.79
38038;BME280;23843;51.320;12.340;2023-11-21T01:52:57;99649.22;;;8.95;71.06
38038;BME280;23843;51.320;12.340;2023-11-21T01:55:23;99649.53;;;8.98;70.73
38038;BME280;23843;51.320;12.340;2023-11-21T01:57:48;99651.00;;;9.01;70.60
38038;BME280;23843;51.320;12.340;2023-11-21T02:00:15;99655.84;;;9.06;71.11
38038;BME280;23843;51.320;12.340;2023-11-21T02:02:42;99654.25;;;9.10;70.67
38038;BME280;23843;51.320;12.340;2023-11-21T02:05:07;99657.63;;;9.12;70.24
38038;BME280;23843;51.320;12.340;2023-11-21T02:07:33;99657.97;;;9.15;70.38
38038;BME280;23843;51.320;12.340;2023-11-21T02:09:59;99667.72;;;9.18;70.70
38038;BME280;23843;51.320;12.340;2023-11-21T02:12:24;99668.34;;;9.20;71.10
38038;BME280;23843;51.320;12.340;2023-11-21T02:14:49;99669.75;;;9.22;70.56
38038;BME280;23843;51.320;12.340;2023-11-21T02:17:16;99669.91;;;9.27;70.45
38038;BME280;23843;51.320;12.340;2023-11-21T02:19:42;99669.16;;;9.32;70.08
38038;BME280;23843;51.320;12.340;2023-11-21T02:22:07;99666.97;;;9.34;70.78
38038;BME280;23843;51.320;12.340;2023-11-21T02:24:35;99663.72;;;9.37;70.47
38038;BME280;23843;51.320;12.340;2023-11-21T02:27:00;99663.84;;;9.42;70.14
38038;BME280;23843;51.320;12.340;2023-11-21T02:29:26;99656.69;;;9.46;70.04
38038;BME280;23843;51.320;12.340;2023-11-21T02:31:52;99663.44;;;9.50;70.33
38038;BME280;23843;51.320;12.340;2023-11-21T02:34:18;99667.41;;;9.54;70.47
38038;BME280;23843;51.320;12.340;2023-11-21T02:36:44;99666.91;;;9.57;69.97
38038;BME280;23843;51.320;12.340;2023-11-21T02:39:09;99667.75;;;9.58;70.09
38038;BME280;23843;51.320;12.340;2023-11-21T02:44:02;99673.28;;;9.58;70.48
38038;BME280;23843;51.320;12.340;2023-11-21T02:46:28;99665.56;;;9.60;70.24
38038;BME280;23843;51.320;12.340;2023-11-21T02:48:53;99662.81;;;9.60;70.47
38038;BME280;23843;51.320;12.340;2023-11-21T02:51:19;99660.88;;;9.60;70.14
38038;BME280;23843;51.320;12.340;2023-11-21T02:53:44;99660.03;;;9.60;70.71
38038;BME280;23843;51.320;12.340;2023-11-21T02:56:09;99663.03;;;9.58;70.29
38038;BME280;23843;51.320;12.340;2023-11-21T02:58:36;99664.97;;;9.58;70.53
38038;BME280;23843;51.320;12.340;2023-11-21T03:01:02;99656.56;;;9.53;70.05
38038;BME280;23843;51.320;12.340;2023-11-21T03:03:27;99662.56;;;9.50;70.09
38038;BME280;23843;51.320;12.340;2023-11-21T03:05:53;99659.94;;;9.43;70.54
38038;BME280;23843;51.320;12.340;2023-11-21T03:08:18;99656.47;;;9.36;70.68
38038;BME280;23843;51.320;12.340;2023-11-21T03:10:43;99654.69;;;9.30;70.31
38038;BME280;23843;51.320;12.340;2023-11-21T03:13:09;99665.44;;;9.26;70.38
38038;BME280;23843;51.320;12.340;2023-11-21T03:15:36;99662.28;;;9.23;70.59
38038;BME280;23843;51.320;12.340;2023-11-21T03:18:01;99660.25;;;9.18;70.94
38038;BME280;23843;51.320;12.340;2023-11-21T03:20:27;99663.75;;;9.14;70.50
38038;BME280;23843;51.320;12.340;2023-11-21T03:22:52;99661.09;;;9.07;70.92
38038;BME280;23843;51.320;12.340;2023-11-21T03:25:17;99662.94;;;9.02;70.80
38038;BME280;23843;51.320;12.340;2023-11-21T03:27:43;99666.16;;;8.98;71.00
38038;BME280;23843;51.320;12.340;2023-11-21T03:30:09;99673.28;;;8.94;70.62
38038;BME280;23843;51.320;12.340;2023-11-21T03:32:36;99673.19;;;8.89;71.11
38038;BME280;23843;51.320;12.340;2023-11-21T03:35:02;99676.53;;;8.91;70.73
38038;BME280;23843;51.320;12.340;2023-11-21T03:37:28;99682.22;;;8.96;71.15
38038;BME280;23843;51.320;12.340;2023-11-21T03:39:54;99678.69;;;9.01;70.89
38038;BME280;23843;51.320;12.340;2023-11-21T03:42:19;99682.44;;;9.07;70.65
38038;BME280;23843;51.320;12.340;2023-11-21T03:44:45;99679.53;;;9.13;70.49
38038;BME280;23843;51.320;12.340;2023-11-21T03:47:10;99685.19;;;9.18;70.85
38038;BME280;23843;51.320;12.340;2023-11-21T03:49:37;99689.16;;;9.22;70.63
38038;BME280;23843;51.320;12.340;2023-11-21T03:52:04;99688.06;;;9.23;70.33
38038;BME280;23843;51.320;12.340;2023-11-21T03:54:29;99684.00;;;9.26;71.22
38038;BME280;23843;51.320;12.340;2023-11-21T03:56:55;99684.56;;;9.28;70.82
38038;BME280;23843;51.320;12.340;2023-11-21T03:59:20;99695.66;;;9.28;70.47
38038;BME280;23843;51.320;12.340;2023-11-21T04:01:46;99690.72;;;9.30;70.82
38038;BME280;23843;51.320;12.340;2023-11-21T04:04:11;99699.28;;;9.28;70.64
38038;BME280;23843;51.320;12.340;2023-11-21T04:06:38;99691.81;;;9.29;70.51
38038;BME280;23843;51.320;12.340;2023-11-21T04:09:04;99696.75;;;9.27;70.70
38038;BME280;23843;51.320;12.340;2023-11-21T04:11:29;99698.69;;;9.26;71.13
38038;BME280;23843;51.320;12.340;2023-11-21T04:13:54;99703.16;;;9.27;71.08
38038;BME280;23843;51.320;12.340;2023-11-21T04:16:20;99701.19;;;9.28;70.87
38038;BME280;23843;51.320;12.340;2023-11-21T04:18:45;99704.81;;;9.28;70.55
38038;BME280;23843;51.320;12.340;2023-11-21T04:21:11;99702.03;;;9.28;70.50
38038;BME280;23843;51.320;12.340;2023-11-21T04:23:37;99710.34;;;9.28;70.48
38038;BME280;23843;51.320;12.340;2023-11-21T04:26:03;99702.03;;;9.28;70.75
38038;BME280;23843;51.320;12.340;2023-11-21T04:28:29;99704.56;;;9.30;71.04
38038;BME280;23843;51.320;12.340;2023-11-21T04:30:54;99707.72;;;9.33;71.18
38038;BME280;23843;51.320;12.340;2023-11-21T04:33:19;99710.25;;;9.35;70.60
38038;BME280;23843;51.320;12.340;2023-11-21T04:35:45;99716.97;;;9.39;71.20
38038;BME280;23843;51.320;12.340;2023-11-21T04:38:10;99716.75;;;9.41;70.63
38038;BME280;23843;51.320;12.340;2023-11-21T04:40:37;99720.94;;;9.43;70.60
38038;BME280;23843;51.320;12.340;2023-11-21T04:43:03;99724.31;;;9.45;70.55
38038;BME280;23843;51.320;12.340;2023-11-21T04:45:28;99726.00;;;9.46;70.78
38038;BME280;23843;51.320;12.340;2023-11-21T04:47:53;99731.09;;;9.49;70.44
38038;BME280;23843;51.320;12.340;2023-11-21T04:50:19;99725.88;;;9.53;70.77
38038;BME280;23843;51.320;12.340;2023-11-21T04:52:44;99729.50;;;9.53;70.34
38038;BME280;23843;51.320;12.340;2023-11-21T04:55:10;99730.69;;;9.57;70.69
38038;BME280;23843;51.320;12.340;2023-11-21T04:57:37;99729.34;;;9.60;70.75
38038;BME280;23843;51.320;12.340;2023-11-21T05:00:03;99729.34;;;9.60;70.45
38038;BME280;23843;51.320;12.340;2023-11-21T05:02:28;99734.66;;;9.61;70.48
38038;BME280;23843;51.320;12.340;2023-11-21T05:04:53;99737.78;;;9.65;70.40
38038;BME280;23843;51.320;12.340;2023-11-21T05:07:19;99743.09;;;9.66;70.38
38038;BME280;23843;51.320;12.340;2023-11-21T05:09:44;99745.63;;;9.68;70.31
38038;BME280;23843;51.320;12.340;2023-11-21T05:12:10;99740.91;;;9.68;70.54
38038;BME280;23843;51.320;12.340;2023-11-21T05:14:37;99742.09;;;9.72;70.57
38038;BME280;23843;51.320;12.340;2023-11-21T05:17:02;99744.63;;;9.74;70.65
38038;BME280;23843;51.320;12.340;2023-11-21T05:19:28;99746.31;;;9.75;70.71
38038;BME280;23843;51.320;12.340;2023-11-21T05:21:53;99753.31;;;9.77;70.51
38038;BME280;23843;51.320;12.340;2023-11-21T05:24:18;99754.75;;;9.80;70.42
38038;BME280;23843;51.320;12.340;2023-11-21T05:26:44;99757.28;;;9.82;70.66
38038;BME280;23843;51.320;12.340;2023-11-21T05:29:09;99770.91;;;9.83;70.38
38038;BME280;23843;51.320;12.340;2023-11-21T05:31:36;99767.06;;;9.84;70.47
38038;BME280;23843;51.320;12.340;2023-11-21T05:34:03;99765.97;;;9.85;70.24
38038;BME280;23843;51.320;12.340;2023-11-21T05:36:28;99761.84;;;9.88;70.30
38038;BME280;23843;51.320;12.340;2023-11-21T05:38:54;99758.22;;;9.87;70.25
38038;BME280;23843;51.320;12.340;2023-11-21T05:41:19;99763.53;;;9.89;70.47
38038;BME280;23843;51.320;12.340;2023-11-21T05:43:44;99763.53;;;9.89;70.27
38038;BME280;23843;51.320;12.340;2023-11-21T05:46:10;99766.53;;;9.87;70.48
38038;BME280;23843;51.320;12.340;2023-11-21T05:48:37;99771.25;;;9.87;70.43
38038;BME280;23843;51.320;12.340;2023-11-21T05:51:03;99769.06;;;9.89;70.58
38038;BME280;23843;51.320;12.340;2023-11-21T05:53:28;99778.47;;;9.88;70.67
38038;BME280;23843;51.320;12.340;2023-11-21T05:55:53;99770.44;;;9.86;70.29
38038;BME280;23843;51.320;12.340;2023-11-21T05:58:19;99776.78;;;9.87;70.60
38038;BME280;23843;51.320;12.340;2023-11-21T06:00:44;99770.44;;;9.86;70.59
38038;BME280;23843;51.320;12.340;2023-11-21T06:03:10;99776.22;;;9.85;70.48
38038;BME280;23843;51.320;12.340;2023-11-21T06:05:37;99780.31;;;9.82;70.66
38038;BME280;23843;51.320;12.340;2023-11-21T06:08:02;99782.00;;;9.83;70.46
38038;BME280;23843;51.320;12.340;2023-11-21T06:10:28;99784.53;;;9.85;70.79
38038;BME280;23843;51.320;12.340;2023-11-21T06:12:54;99780.69;;;9.86;70.54
38038;BME280;23843;51.320;12.340;2023-11-21T06:15:19;99785.38;;;9.85;70.45
38038;BME280;23843;51.320;12.340;2023-11-21T06:17:45;99793.09;;;9.83;70.47
38038;BME280;23843;51.320;12.340;2023-11-21T06:20:11;99796.13;;;9.82;70.50
38038;BME280;23843;51.320;12.340;2023-11-21T06:22:38;99796.34;;;9.80;70.46
38038;BME280;23843;51.320;12.340;2023-11-21T06:25:05;99801.91;;;9.80;70.83
38038;BME280;23843;51.320;12.340;2023-11-21T06:27:31;99800.22;;;9.79;70.67
38038;BME280;23843;51.320;12.340;2023-11-21T06:29:56;99814.09;;;9.79;70.35
38038;BME280;23843;51.320;12.340;2023-11-21T06:32:22;99812.41;;;9.78;71.02
38038;BME280;23843;51.320;12.340;2023-11-21T06:34:47;99809.88;;;9.76;70.77
38038;BME280;23843;51.320;12.340;2023-11-21T06:37:13;99819.06;;;9.77;70.68
38038;BME280;23843;51.320;12.340;2023-11-21T06:39:40;99824.59;;;9.77;70.87
38038;BME280;23843;51.320;12.340;2023-11-21T06:42:05;99820.13;;;9.76;70.96
38038;BME280;23843;51.320;12.340;2023-11-21T06:44:31;99822.06;;;9.75;70.97
38038;BME280;23843;51.320;12.340;2023-11-21T06:46:56;99839.91;;;9.80;70.88
38038;BME280;23843;51.320;12.340;2023-11-21T06:49:22;99828.56;;;9.81;70.69
38038;BME280;23843;51.320;12.340;2023-11-21T06:51:47;99824.94;;;9.81;70.75
38038;BME280;23843;51.320;12.340;2023-11-21T06:54:12;99825.19;;;9.79;70.78
38038;BME280;23843;51.320;12.340;2023-11-21T06:56:39;99837.38;;;9.78;70.88
38038;BME280;23843;51.320;12.340;2023-11-21T06:59:05;99822.41;;;9.79;70.93
38038;BME280;23843;51.320;12.340;2023-11-21T07:01:30;99827.72;;;9.81;70.98
38038;BME280;23843;51.320;12.340;2023-11-21T07:03:56;99823.25;;;9.80;70.96
38038;BME280;23843;51.320;12.340;2023-11-21T07:06:21;99832.41;;;9.80;70.87
38038;BME280;23843;51.320;12.340;2023-11-21T07:08:47;99837.13;;;9.80;70.86
38038;BME280;23843;51.320;12.340;2023-11-21T07:11:12;99843.50;;;9.80;71.06
38038;BME280;23843;51.320;12.340;2023-11-21T07:13:39;99848.72;;;9.76;71.28
38038;BME280;23843;51.320;12.340;2023-11-21T07:16:05;99848.97;;;9.75;71.07
38038;BME280;23843;51.320;12.340;2023-11-21T07:18:31;99855.13;;;9.77;70.85
38038;BME280;23843;51.320;12.340;2023-11-21T07:20:56;99855.69;;;9.79;70.97
38038;BME280;23843;51.320;12.340;2023-11-21T07:23:22;99862.09;;;9.80;71.03
38038;BME280;23843;51.320;12.340;2023-11-21T07:25:47;99861.84;;;9.81;71.09
38038;BME280;23843;51.320;12.340;2023-11-21T07:28:12;99866.09;;;9.84;71.07
38038;BME280;23843;51.320;12.340;2023-11-21T07:30:39;99867.16;;;9.83;71.23
38038;BME280;23843;51.320;12.340;2023-11-21T07:33:05;99863.53;;;9.82;70.94
38038;BME280;23843;51.320;12.340;2023-11-21T07:35:30;99874.16;;;9.85;71.26
38038;BME280;23843;51.320;12.340;2023-11-21T07:37:56;99867.53;;;9.86;71.12
38038;BME280;23843;51.320;12.340;2023-11-21T07:40:21;99872.59;;;9.89;71.04
38038;BME280;23843;51.320;12.340;2023-11-21T07:42:46;99872.34;;;9.91;70.98
38038;BME280;23843;51.320;12.340;2023-11-21T07:45:12;99871.50;;;9.90;70.98
38038;BME280;23843;51.320;12.340;2023-11-21T07:47:39;99876.19;;;9.90;71.24
38038;BME280;23843;51.320;12.340;2023-11-21T07:50:05;99876.19;;;9.90;71.54
38038;BME280;23843;51.320;12.340;2023-11-21T07:52:31;99877.91;;;9.91;71.15
38038;BME280;23843;51.320;12.340;2023-11-21T07:54:56;99873.44;;;9.90;71.32
38038;BME280;23843;51.320;12.340;2023-11-21T07:57:22;99878.38;;;9.88;71.73
38038;BME280;23843;51.320;12.340;2023-11-21T07:59:47;99882.84;;;9.89;71.46
38038;BME280;23843;51.320;12.340;2023-11-21T08:02:12;99892.38;;;9.93;71.50
38038;BME280;23843;51.320;12.340;2023-11-21T08:04:39;99894.66;;;9.96;71.52
38038;BME280;23843;51.320;12.340;2023-11-21T08:07:05;99892.38;;;9.93;71.58
38038;BME280;23843;51.320;12.340;2023-11-21T08:09:30;99908.19;;;9.92;71.37
38038;BME280;23843;51.320;12.340;2023-11-21T08:11:56;99912.03;;;9.91;71.61
38038;BME280;23843;51.320;12.340;2023-11-21T08:14:21;99915.44;;;9.93;71.73
38038;BME280;23843;51.320;12.340;2023-11-21T08:16:47;99920.72;;;9.95;71.41
38038;BME280;23843;51.320;12.340;2023-11-21T08:19:12;99923.75;;;9.93;71.79
38038;BME280;23843;51.320;12.340;2023-11-21T08:21:39;99923.97;;;9.92;71.53
38038;BME280;23843;51.320;12.340;2023-11-21T08:24:06;99923.97;;;9.92;71.71
38038;BME280;23843;51.320;12.340;2023-11-21T08:26:31;99922.28;;;9.91;71.34
38038;BME280;23843;51.320;12.340;2023-11-21T08:28:57;99924.22;;;9.90;71.49
38038;BME280;23843;51.320;12.340;2023-11-21T08:31:25;99927.84;;;9.91;71.58
38038;BME280;23843;51.320;12.340;2023-11-21T08:33:51;99935.56;;;9.89;71.79
38038;BME280;23843;51.320;12.340;2023-11-21T08:36:16;99939.28;;;9.83;71.48
38038;BME280;23843;51.320;12.340;2023-11-21T08:38:43;99928.94;;;9.78;71.68
38038;BME280;23843;51.320;12.340;2023-11-21T08:41:09;99935.19;;;9.73;71.25
38038;BME280;23843;51.320;12.340;2023-11-21T08:43:34;99945.94;;;9.70;71.62
38038;BME280;23843;51.320;12.340;2023-11-21T08:46:00;99949.56;;;9.70;71.95
38038;BME280;23843;51.320;12.340;2023-11-21T08:48:25;99951.81;;;9.73;71.70
38038;BME280;23843;51.320;12.340;2023-11-21T08:50:51;99952.91;;;9.72;71.61
38038;BME280;23843;51.320;12.340;2023-11-21T08:53:16;99962.56;;;9.70;71.62
38038;BME280;23843;51.320;12.340;2023-11-21T08:55:43;99965.59;;;9.68;71.71
38038;BME280;23843;51.320;12.340;2023-11-21T08:58:08;99963.03;;;9.67;71.25
38038;BME280;23843;51.320;12.340;2023-11-21T09:00:34;99969.19;;;9.69;71.71
38038;BME280;23843;51.320;12.340;2023-11-21T09:03:01;99967.50;;;9.68;71.40
38038;BME280;23843;51.320;12.340;2023-11-21T09:05:26;99982.22;;;9.68;71.51
38038;BME280;23843;51.320;12.340;2023-11-21T09:07:52;99979.06;;;9.65;71.57
38038;BME280;23843;51.320;12.340;2023-11-21T09:10:17;99989.56;;;9.63;71.60
38038;BME280;23843;51.320;12.340;2023-11-21T09:12:44;99986.66;;;9.58;71.81
38038;BME280;23843;51.320;12.340;2023-11-21T09:15:10;99995.94;;;9.52;71.66
38038;BME280;23843;51.320;12.340;2023-11-21T09:17:35;99993.25;;;9.45;71.69
38038;BME280;23843;51.320;12.340;2023-11-21T09:20:02;99992.75;;;9.36;72.07
38038;BME280;23843;51.320;12.340;2023-11-21T09:22:27;99999.00;;;9.32;72.15
38038;BME280;23843;51.320;12.340;2023-11-21T09:24:53;100006.94;;;9.28;72.64
38038;BME280;23843;51.320;12.340;2023-11-21T09:27:19;100007.19;;;9.27;72.23
38038;BME280;23843;51.320;12.340;2023-11-21T09:29:46;100006.94;;;9.28;72.18
38038;BME280;23843;51.320;12.340;2023-11-21T09:32:11;100009.13;;;9.26;71.96
38038;BME280;23843;51.320;12.340;2023-11-21T09:34:37;100017.66;;;9.25;72.18
38038;BME280;23843;51.320;12.340;2023-11-21T09:37:03;100022.59;;;9.23;72.02
38038;BME280;23843;51.320;12.340;2023-11-21T09:39:28;100014.50;;;9.21;71.95
38038;BME280;23843;51.320;12.340;2023-11-21T09:41:59;100015.63;;;9.20;72.33
38038;BME280;23843;51.320;12.340;2023-11-21T09:44:32;100015.00;;;9.18;71.75
38038;BME280;23843;51.320;12.340;2023-11-21T09:47:02;100029.09;;;9.17;72.12
38038;BME280;23843;51.320;12.340;2023-11-21T09:49:28;100028.00;;;9.18;72.01
38038;BME280;23843;51.320;12.340;2023-11-21T09:51:55;100033.06;;;9.21;72.08
38038;BME280;23843;51.320;12.340;2023-11-21T09:54:21;100024.69;;;9.27;72.16
38038;BME280;23843;51.320;12.340;2023-11-21T09:56:46;100028.19;;;9.34;72.37
38038;BME280;23843;51.320;12.340;2023-11-21T09:59:14;100035.56;;;9.41;72.16
38038;BME280;23843;51.320;12.340;2023-11-21T10:01:40;100043.41;;;9.44;71.46
38038;BME280;23843;51.320;12.340;2023-11-21T10:04:08;100055.34;;;9.44;72.16
38038;BME280;23843;51.320;12.340;2023-11-21T10:06:33;100051.13;;;9.42;72.35
38038;BME280;23843;51.320;12.340;2023-11-21T10:08:59;100048.59;;;9.40;71.97
38038;BME280;23843;51.320;12.340;2023-11-21T10:11:25;100056.28;;;9.38;71.66
38038;BME280;23843;51.320;12.340;2023-11-21T10:13:54;100054.22;;;9.33;71.82
38038;BME280;23843;51.320;12.340;2023-11-21T10:16:20;100050.00;;;9.31;72.33
38038;BME280;23843;51.320;12.340;2023-11-21T10:18:48;100050.69;;;9.26;71.82
38038;BME280;23843;51.320;12.340;2023-11-21T10:21:18;100057.09;;;9.27;71.72
38038;BME280;23843;51.320;12.340;2023-11-21T10:23:44;100046.84;;;9.27;72.12
38038;BME280;23843;51.320;12.340;2023-11-21T10:26:11;100053.09;;;9.23;72.09
38038;BME280;23843;51.320;12.340;2023-11-21T10:28:37;100056.09;;;9.21;72.30
38038;BME280;23843;51.320;12.340;2023-11-21T10:31:02;100062.72;;;9.20;72.24
38038;BME280;23843;51.320;12.340;2023-11-21T10:33:28;100063.56;;;9.21;71.64
38038;BME280;23843;51.320;12.340;2023-11-21T10:35:53;100072.50;;;9.23;72.21
38038;BME280;23843;51.320;12.340;2023-11-21T10:38:20;100073.09;;;9.25;71.63
38038;BME280;23843;51.320;12.340;2023-11-21T10:40:46;100071.19;;;9.25;71.66
38038;BME280;23843;51.320;12.340;2023-11-21T10:43:12;100070.47;;;9.30;71.80
38038;BME280;23843;51.320;12.340;2023-11-21T10:45:37;100077.47;;;9.32;71.76
38038;BME280;23843;51.320;12.340;2023-11-21T10:48:05;100072.63;;;9.28;72.17
38038;BME280;23843;51.320;12.340;2023-11-21T10:50:32;100074.09;;;9.30;72.42
38038;BME280;23843;51.320;12.340;2023-11-21T10:52:58;100064.25;;;9.34;72.54
38038;BME280;23843;51.320;12.340;2023-11-21T10:55:24;100068.22;;;9.38;72.10
38038;BME280;23843;51.320;12.340;2023-11-21T10:57:52;100070.28;;;9.43;71.87
38038;BME280;23843;51.320;12.340;2023-11-21T11:00:19;100072.19;;;9.43;71.98
38038;BME280;23843;51.320;12.340;2023-11-21T11:02:45;100080.16;;;9.39;71.58
38038;BME280;23843;51.320;12.340;2023-11-21T11:05:12;100068.44;;;9.37;71.61
38038;BME280;23843;51.320;12.340;2023-11-21T11:07:41;100078.09;;;9.34;71.96
38038;BME280;23843;51.320;12.340;2023-11-21T11:10:09;100084.72;;;9.33;71.42
38038;BME280;23843;51.320;12.340;2023-11-21T11:12:36;100087.34;;;9.28;71.87
38038;BME280;23843;51.320;12.340;2023-11-21T11:15:02;100086.13;;;9.24;71.58
38038;BME280;23843;51.320;12.340;2023-11-21T11:17:28;100082.94;;;9.21;72.20
38038;BME280;23843;51.320;12.340;2023-11-21T11:19:53;100089.34;;;9.21;72.35
38038;BME280;23843;51.320;12.340;2023-11-21T11:22:29;100092.13;;;9.21;71.75
38038;BME280;23843;51.320;12.340;2023-11-21T11:25:18;100101.75;;;9.19;71.71
38038;BME280;23843;51.320;12.340;2023-11-21T11:27:54;100106.22;;;9.20;71.53
38038;BME280;23843;51.320;12.340;2023-11-21T11:30:27;100115.63;;;9.19;71.96
38038;BME280;23843;51.320;12.340;2023-11-21T11:33:06;100123.94;;;9.19;71.41
38038;BME280;23843;51.320;12.340;2023-11-21T11:35:38;100120.16;;;9.13;71.52
38038;BME280;23843;51.320;12.340;2023-11-21T11:38:08;100116.16;;;9.09;71.91
38038;BME280;23843;51.320;12.340;2023-11-21T11:40:40;100117.09;;;9.03;71.45
38038;BME280;23843;51.320;12.340;2023-11-21T11:43:07;100121.16;;;9.01;71.11
38038;BME280;23843;51.320;12.340;2023-11-21T11:45:33;100119.09;;;8.96;71.56
38038;BME280;23843;51.320;12.340;2023-11-21T11:48:00;100125.94;;;8.93;71.82
38038;BME280;23843;51.320;12.340;2023-11-21T11:50:26;100124.22;;;8.92;72.05
38038;BME280;23843;51.320;12.340;2023-11-21T11:52:52;100131.47;;;8.93;72.12
38038;BME280;23843;51.320;12.340;2023-11-21T11:55:19;100128.94;;;8.92;71.64
38038;BME280;23843;51.320;12.340;2023-11-21T11:57:47;100132.53;;;8.92;71.70
38038;BME280;23843;51.320;12.340;2023-11-21T12:00:15;100135.56;;;8.91;71.56
38038;BME280;23843;51.320;12.340;2023-11-21T12:02:42;100142.78;;;8.92;71.92
38038;BME280;23843;51.320;12.340;2023-11-21T12:05:09;100139.63;;;8.88;72.16
38038;BME280;23843;51.320;12.340;2023-11-21T12:07:42;100150.78;;;8.82;72.67
38038;BME280;23843;51.320;12.340;2023-11-21T12:10:11;100151.47;;;8.77;71.95
38038;BME280;23843;51.320;12.340;2023-11-21T12:12:37;100158.75;;;8.72;72.16
38038;BME280;23843;51.320;12.340;2023-11-21T12:15:03;100155.69;;;8.62;72.37
38038;BME280;23843;51.320;12.340;2023-11-21T12:17:30;100157.19;;;8.57;72.44
38038;BME280;23843;51.320;12.340;2023-11-21T12:20:01;100161.25;;;8.55;72.18
38038;BME280;23843;51.320;12.340;2023-11-21T12:22:28;100170.19;;;8.57;72.35
38038;BME280;23843;51.320;12.340;2023-11-21T12:24:54;100177.66;;;8.56;72.57
38038;BME280;23843;51.320;12.340;2023-11-21T12:27:20;100183.41;;;8.55;72.10
38038;BME280;23843;51.320;12.340;2023-11-21T12:29:46;100192.63;;;8.49;71.82
38038;BME280;23843;51.320;12.340;2023-11-21T12:32:11;100192.47;;;8.44;72.70
38038;BME280;23843;51.320;12.340;2023-11-21T12:34:38;100200.34;;;8.40;72.72
38038;BME280;23843;51.320;12.340;2023-11-21T12:37:04;100198.91;;;8.38;71.87
38038;BME280;23843;51.320;12.340;2023-11-21T12:39:29;100202.34;;;8.33;72.43
38038;BME280;23843;51.320;12.340;2023-11-21T12:41:55;100210.44;;;8.28;72.51
38038;BME280;23843;51.320;12.340;2023-11-21T12:44:20;100210.75;;;8.13;72.11
38038;BME280;23843;51.320;12.340;2023-11-21T12:46:46;100209.78;;;8.01;72.17
38038;BME280;23843;51.320;12.340;2023-11-21T12:49:11;100219.41;;;7.92;72.49
38038;BME280;23843;51.320;12.340;2023-11-21T12:51:38;100232.41;;;7.85;72.63
38038;BME280;23843;51.320;12.340;2023-11-21T12:54:04;100241.38;;;7.80;72.41